Time;durP1;ratioP1;P1;durP2;ratioP2;P2;SDS_P1;SDS_P2;PMS_P1;PMS_P2;Temp;Humidity;BMP_temperature;BMP_pressure;BME280_temperature;BME280_humidity;BME280_pressure;Samples;Min_cycle;Max_cycle;Signal;HPM_P1;HPM_P2
2023/04/20 00:00:11;;;;;;;8.05;3.65;;;5.90;99.90;;;;;;5001955;28;20018;-94
2023/04/20 00:02:38;;;;;;;11.20;3.72;;;5.90;99.90;;;;;;4999896;28;20092;-94
2023/04/20 00:05:08;;;;;;;9.88;4.00;;;5.90;99.90;;;;;;5005018;28;20026;-94
2023/04/20 00:07:34;;;;;;;13.35;4.72;;;5.90;99.90;;;;;;4991711;28;20065;-94
2023/04/20 00:10:00;;;;;;;10.90;4.00;;;5.80;99.90;;;;;;4981325;28;20138;-94
2023/04/20 00:12:27;;;;;;;11.32;4.15;;;5.80;99.90;;;;;;4976774;28;20079;-95
2023/04/20 00:14:52;;;;;;;13.93;3.80;;;5.80;99.90;;;;;;4977615;28;20082;-95
2023/04/20 00:17:18;;;;;;;13.02;3.67;;;5.80;99.90;;;;;;4981466;28;20027;-95
2023/04/20 00:19:45;;;;;;;12.57;4.10;;;5.80;99.90;;;;;;4980691;28;20469;-94
2023/04/20 00:22:11;;;;;;;10.90;4.18;;;5.80;99.90;;;;;;4980694;28;20121;-93
2023/04/20 00:24:36;;;;;;;13.25;4.38;;;5.70;99.90;;;;;;4980749;28;20073;-94
2023/04/20 00:27:02;;;;;;;13.15;4.53;;;5.70;99.90;;;;;;4981062;28;20019;-93
2023/04/20 00:29:28;;;;;;;10.55;3.58;;;5.70;99.90;;;;;;4978995;28;20050;-93
2023/04/20 00:31:54;;;;;;;16.25;5.03;;;5.70;99.90;;;;;;4977647;28;20082;-93
2023/04/20 00:34:20;;;;;;;13.82;4.85;;;5.70;99.90;;;;;;4978250;28;20435;-93
2023/04/20 00:36:45;;;;;;;16.98;3.78;;;5.60;99.90;;;;;;4978666;28;20082;-94
2023/04/20 00:39:11;;;;;;;14.05;4.45;;;5.70;99.90;;;;;;4978376;28;20093;-94
2023/04/20 00:41:37;;;;;;;12.98;5.82;;;5.70;99.90;;;;;;4978050;28;20525;-92
2023/04/20 00:44:05;;;;;;;17.00;4.43;;;5.60;99.90;;;;;;4977219;28;20023;-92
2023/04/20 00:46:31;;;;;;;11.05;4.10;;;5.60;99.90;;;;;;4977755;28;20047;-93
2023/04/20 00:48:57;;;;;;;12.88;4.03;;;5.60;99.90;;;;;;4978748;28;20027;-95
2023/04/20 00:51:23;;;;;;;12.32;4.80;;;5.60;99.90;;;;;;4977902;28;20027;-94
2023/04/20 00:53:48;;;;;;;13.15;4.97;;;5.60;99.90;;;;;;4985581;28;20027;-94
2023/04/20 00:56:15;;;;;;;19.02;4.45;;;5.60;99.90;;;;;;4987702;28;20023;-91
2023/04/20 00:58:45;;;;;;;18.65;5.30;;;5.50;99.90;;;;;;4978099;28;20030;-94
2023/04/20 01:01:12;;;;;;;15.25;5.78;;;5.60;99.90;;;;;;4978475;28;20180;-95
2023/04/20 01:03:41;;;;;;;12.85;4.95;;;5.60;99.90;;;;;;4982576;28;20096;-94
2023/04/20 01:06:07;;;;;;;15.10;6.10;;;5.50;99.90;;;;;;4980052;28;20026;-94
2023/04/20 01:08:33;;;;;;;30.10;7.13;;;5.60;99.90;;;;;;4982807;28;20051;-93
2023/04/20 01:10:59;;;;;;;12.93;6.28;;;5.50;99.90;;;;;;4983982;28;20030;-94
2023/04/20 01:13:24;;;;;;;17.58;6.97;;;5.60;99.90;;;;;;4982851;28;20054;-93
2023/04/20 01:15:50;;;;;;;23.67;6.88;;;5.50;99.90;;;;;;4980861;28;20030;-93
2023/04/20 01:18:18;;;;;;;16.05;7.05;;;5.60;99.90;;;;;;4978511;28;20425;-93
2023/04/20 01:20:46;;;;;;;20.98;7.05;;;5.60;99.90;;;;;;4976763;28;20054;-92
2023/04/20 01:23:13;;;;;;;17.90;7.93;;;5.60;99.90;;;;;;4976025;28;20039;-94
2023/04/20 01:25:38;;;;;;;17.73;7.88;;;5.60;99.90;;;;;;4977685;28;20102;-93
2023/04/20 01:28:04;;;;;;;22.45;9.00;;;5.60;99.90;;;;;;4976082;28;20552;-93
2023/04/20 01:30:30;;;;;;;17.63;8.85;;;5.60;99.90;;;;;;4975980;28;20027;-94
2023/04/20 01:32:56;;;;;;;19.02;8.32;;;5.60;99.90;;;;;;4975905;28;20034;-94
2023/04/20 01:35:22;;;;;;;20.33;10.15;;;5.50;99.90;;;;;;4975404;28;20026;-93
2023/04/20 01:37:47;;;;;;;19.20;9.88;;;5.50;99.90;;;;;;4975522;28;20035;-93
2023/04/20 01:40:14;;;;;;;22.80;10.85;;;5.60;99.90;;;;;;4975609;28;20019;-93
2023/04/20 01:42:40;;;;;;;24.58;10.98;;;5.60;99.90;;;;;;4975856;28;20515;-94
2023/04/20 01:45:06;;;;;;;19.02;9.13;;;5.60;99.90;;;;;;4975212;28;20023;-93
2023/04/20 01:47:33;;;;;;;19.33;11.00;;;5.50;99.90;;;;;;4975883;28;20523;-95
2023/04/20 01:49:59;;;;;;;22.65;11.18;;;5.50;99.90;;;;;;4975433;28;20437;-94
2023/04/20 01:52:25;;;;;;;22.00;10.25;;;5.50;99.90;;;;;;4974923;28;20058;-94
2023/04/20 01:54:51;;;;;;;22.83;11.07;;;5.50;99.90;;;;;;4974941;28;20034;-93
2023/04/20 01:57:16;;;;;;;29.52;11.48;;;5.50;99.90;;;;;;4974791;28;20015;-93
2023/04/20 01:59:42;;;;;;;24.73;10.30;;;5.50;99.90;;;;;;4974772;28;20023;-93
2023/04/20 02:02:08;;;;;;;24.52;11.70;;;5.50;99.90;;;;;;4974743;28;20022;-93
2023/04/20 02:04:34;;;;;;;21.23;12.52;;;5.50;99.90;;;;;;4974909;28;20027;-91
2023/04/20 02:07:00;;;;;;;24.65;12.40;;;5.40;99.90;;;;;;4974797;28;20023;-92
2023/04/20 02:09:26;;;;;;;24.88;10.50;;;5.40;99.90;;;;;;4982107;28;20054;-94
2023/04/20 02:11:52;;;;;;;20.08;11.30;;;5.40;99.90;;;;;;4982863;28;20077;-93
2023/04/20 02:14:17;;;;;;;23.23;11.60;;;5.40;99.90;;;;;;4988086;28;20412;-93
2023/04/20 02:16:43;;;;;;;28.20;12.13;;;5.40;99.90;;;;;;4989754;28;20069;-93
2023/04/20 02:19:09;;;;;;;25.33;11.80;;;5.50;99.90;;;;;;4986707;28;20034;-92
2023/04/20 02:21:34;;;;;;;28.42;12.27;;;5.40;99.90;;;;;;4988341;28;20033;-92
2023/04/20 02:24:01;;;;;;;22.20;10.63;;;5.40;99.90;;;;;;4967452;28;20062;-92
2023/04/20 02:26:27;;;;;;;30.23;12.55;;;5.40;99.90;;;;;;4988316;28;20030;-92
2023/04/20 02:28:52;;;;;;;29.85;12.23;;;5.40;99.90;;;;;;4983717;28;20027;-93
2023/04/20 02:31:18;;;;;;;27.27;12.50;;;5.40;99.90;;;;;;4983193;28;20030;-92
2023/04/20 02:33:46;;;;;;;28.08;12.75;;;5.40;99.90;;;;;;4987699;28;20069;-91
2023/04/20 02:36:11;;;;;;;27.58;11.38;;;5.40;99.90;;;;;;4984579;28;20110;-92
2023/04/20 02:38:37;;;;;;;25.35;12.05;;;5.40;99.90;;;;;;4984064;28;20050;-92
2023/04/20 02:41:03;;;;;;;28.58;12.38;;;5.50;99.90;;;;;;4982651;28;20022;-92
2023/04/20 02:43:29;;;;;;;26.67;13.23;;;5.60;99.90;;;;;;4984270;28;20044;-91
2023/04/20 02:45:54;;;;;;;37.30;13.02;;;5.60;99.90;;;;;;4981823;28;20018;-92
2023/04/20 02:48:20;;;;;;;35.40;14.38;;;5.70;99.90;;;;;;4985819;28;20034;-92
2023/04/20 02:50:46;;;;;;;27.73;13.63;;;5.70;99.90;;;;;;4985511;28;20023;-92
2023/04/20 02:53:12;;;;;;;31.77;13.88;;;5.70;99.90;;;;;;4985438;28;20496;-93
2023/04/20 02:55:37;;;;;;;32.17;14.10;;;5.60;99.90;;;;;;4984152;28;20031;-92
2023/04/20 02:58:06;;;;;;;28.08;14.32;;;5.60;99.90;;;;;;4982556;28;20655;-92
2023/04/20 03:00:32;;;;;;;27.10;12.25;;;5.60;99.90;;;;;;4984453;28;20023;-92
2023/04/20 03:02:58;;;;;;;29.45;14.80;;;5.50;99.90;;;;;;4983961;28;20027;-93
2023/04/20 03:05:24;;;;;;;23.73;12.40;;;5.50;99.90;;;;;;4984653;28;20492;-92
2023/04/20 03:07:49;;;;;;;29.85;15.00;;;5.50;99.90;;;;;;4983886;28;20026;-92
2023/04/20 03:10:15;;;;;;;34.47;14.82;;;5.40;99.90;;;;;;4987702;28;20045;-92
2023/04/20 03:12:42;;;;;;;33.50;12.95;;;5.40;99.90;;;;;;4988266;28;20034;-92
2023/04/20 03:15:08;;;;;;;35.25;13.00;;;5.40;99.90;;;;;;4991374;28;20018;-92
2023/04/20 03:17:34;;;;;;;19.95;12.35;;;5.30;99.90;;;;;;4987903;28;20030;-91
2023/04/20 03:20:00;;;;;;;32.17;12.55;;;5.30;99.90;;;;;;4987458;28;20022;-92
2023/04/20 03:22:26;;;;;;;28.88;14.45;;;5.40;99.90;;;;;;4990357;28;20121;-93
2023/04/20 03:24:51;;;;;;;29.75;13.60;;;5.30;99.90;;;;;;4987498;28;20036;-93
2023/04/20 03:27:17;;;;;;;33.45;12.80;;;5.30;99.90;;;;;;4987311;28;20019;-93
2023/04/20 03:29:43;;;;;;;30.05;12.60;;;5.20;99.90;;;;;;4985569;28;20049;-93
2023/04/20 03:32:08;;;;;;;31.67;14.45;;;5.20;99.90;;;;;;4988381;28;20022;-93
2023/04/20 03:34:34;;;;;;;29.17;13.00;;;5.20;99.90;;;;;;4985637;28;20030;-93
2023/04/20 03:37:02;;;;;;;27.90;13.38;;;5.20;99.90;;;;;;5003061;28;20018;-92
2023/04/20 03:39:30;;;;;;;32.05;14.27;;;5.10;99.90;;;;;;4985151;28;20033;-92
2023/04/20 03:41:56;;;;;;;32.30;13.18;;;5.10;99.90;;;;;;4988558;28;20116;-93
2023/04/20 03:44:22;;;;;;;26.70;13.30;;;5.10;99.90;;;;;;4982362;28;20070;-93
2023/04/20 03:46:47;;;;;;;29.05;14.00;;;5.10;99.90;;;;;;4996123;28;20357;-93
2023/04/20 03:49:14;;;;;;;27.50;13.95;;;5.10;99.90;;;;;;4990113;28;20113;-93
2023/04/20 03:51:40;;;;;;;31.83;13.13;;;5.10;99.90;;;;;;4991750;28;20121;-93
2023/04/20 03:54:06;;;;;;;28.63;13.13;;;5.10;99.90;;;;;;5003796;28;20518;-91
2023/04/20 03:56:31;;;;;;;27.85;13.07;;;5.00;99.90;;;;;;5004801;28;20030;-93
2023/04/20 03:58:57;;;;;;;28.65;12.68;;;5.00;99.90;;;;;;4994825;28;20547;-93
2023/04/20 04:01:23;;;;;;;32.70;13.25;;;5.00;99.90;;;;;;4991835;28;20014;-93
2023/04/20 04:03:49;;;;;;;26.45;12.65;;;5.00;99.90;;;;;;4990475;28;20037;-92
2023/04/20 04:06:15;;;;;;;36.20;14.68;;;5.00;99.90;;;;;;4988335;28;20089;-92
2023/04/20 04:08:44;;;;;;;35.80;17.40;;;5.00;99.90;;;;;;4993210;28;20054;-93
2023/04/20 04:11:09;;;;;;;36.10;16.08;;;5.00;99.90;;;;;;4987642;28;20043;-93
2023/04/20 04:13:35;;;;;;;30.55;14.77;;;5.00;99.90;;;;;;4990061;28;20030;-94
2023/04/20 04:16:01;;;;;;;38.67;15.35;;;5.00;99.90;;;;;;4991504;28;20030;-93
2023/04/20 04:18:31;;;;;;;36.58;14.40;;;4.90;99.90;;;;;;4985849;28;20117;-93
2023/04/20 04:20:59;;;;;;;43.30;17.73;;;5.00;99.90;;;;;;4988511;28;20049;-93
2023/04/20 04:23:25;;;;;;;35.33;15.60;;;4.90;99.90;;;;;;4990849;28;20042;-92
2023/04/20 04:25:51;;;;;;;38.83;14.65;;;4.90;99.90;;;;;;4989319;28;20025;-94
2023/04/20 04:28:16;;;;;;;37.72;15.13;;;4.90;99.90;;;;;;4994250;28;20032;-94
2023/04/20 04:30:42;;;;;;;33.83;14.55;;;4.90;99.90;;;;;;4983895;28;20019;-93
2023/04/20 04:33:08;;;;;;;38.42;15.32;;;4.90;99.90;;;;;;4989025;28;20069;-94
2023/04/20 04:35:34;;;;;;;31.25;14.45;;;4.90;99.90;;;;;;4986715;28;20098;-94
2023/04/20 04:38:01;;;;;;;29.30;14.30;;;4.90;99.90;;;;;;4982976;28;20125;-93
2023/04/20 04:40:27;;;;;;;30.17;14.55;;;4.90;99.90;;;;;;4996856;28;20113;-94
2023/04/20 04:42:54;;;;;;;32.10;14.38;;;4.90;99.90;;;;;;4984325;28;20468;-93
2023/04/20 04:45:20;;;;;;;31.13;14.15;;;4.90;99.90;;;;;;4993419;28;20052;-93
2023/04/20 04:47:45;;;;;;;35.70;14.68;;;4.90;99.90;;;;;;4988064;28;20058;-93
2023/04/20 04:50:11;;;;;;;32.47;15.85;;;4.90;99.90;;;;;;4989057;28;20027;-93
2023/04/20 04:52:37;;;;;;;42.05;16.70;;;4.90;99.90;;;;;;5002607;28;20388;-93
2023/04/20 04:55:07;;;;;;;26.80;13.70;;;4.90;99.90;;;;;;4995594;28;20060;-94
2023/04/20 04:57:32;;;;;;;31.63;14.27;;;4.90;99.90;;;;;;5003129;28;20026;-93
2023/04/20 04:59:58;;;;;;;33.28;15.68;;;4.90;99.90;;;;;;5011271;28;20041;-94
2023/04/20 05:02:24;;;;;;;33.90;15.85;;;4.90;99.90;;;;;;4993443;28;20042;-93
2023/04/20 05:04:49;;;;;;;33.55;16.58;;;4.90;99.90;;;;;;4987492;28;20046;-93
2023/04/20 05:07:16;;;;;;;45.75;16.00;;;4.80;99.90;;;;;;4996900;28;20026;-94
2023/04/20 05:09:42;;;;;;;39.13;14.43;;;4.80;99.90;;;;;;4985680;28;20047;-93
2023/04/20 05:12:07;;;;;;;33.20;14.43;;;4.80;99.90;;;;;;4979871;28;20416;-94
2023/04/20 05:14:34;;;;;;;34.72;14.98;;;4.80;99.90;;;;;;4976603;28;20097;-93
2023/04/20 05:17:00;;;;;;;35.90;14.35;;;4.80;99.90;;;;;;4978360;28;20054;-94
2023/04/20 05:19:26;;;;;;;35.53;15.25;;;4.80;99.90;;;;;;4978328;28;20102;-93
2023/04/20 05:21:51;;;;;;;34.58;15.98;;;4.80;99.90;;;;;;4974256;28;20077;-92
2023/04/20 05:24:18;;;;;;;33.33;15.90;;;4.80;99.90;;;;;;4974773;28;20034;-94
2023/04/20 05:26:45;;;;;;;37.22;17.25;;;4.80;99.90;;;;;;4975007;28;20084;-94
2023/04/20 05:29:10;;;;;;;33.33;16.73;;;4.80;99.90;;;;;;4976837;28;20018;-93
2023/04/20 05:31:36;;;;;;;31.63;15.25;;;4.80;99.90;;;;;;4975866;28;20031;-93
2023/04/20 05:34:02;;;;;;;36.10;16.67;;;4.80;99.90;;;;;;4975502;28;20025;-93
2023/04/20 05:36:29;;;;;;;45.85;18.20;;;4.80;99.90;;;;;;4974302;28;20046;-93
2023/04/20 05:38:55;;;;;;;39.70;16.45;;;4.80;99.90;;;;;;4975634;28;20026;-93
2023/04/20 05:41:26;;;;;;;41.63;17.55;;;4.90;99.90;;;;;;4975504;28;20022;-93
2023/04/20 05:43:52;;;;;;;42.13;17.92;;;4.90;99.90;;;;;;4973190;28;20493;-93
2023/04/20 05:46:18;;;;;;;41.17;15.75;;;4.90;99.90;;;;;;4975260;28;20030;-93
2023/04/20 05:48:44;;;;;;;43.22;16.48;;;4.90;99.90;;;;;;4975137;28;20034;-94
2023/04/20 05:51:10;;;;;;;45.00;17.88;;;4.90;99.90;;;;;;4975964;28;20045;-93
2023/04/20 05:53:36;;;;;;;44.33;17.40;;;4.90;99.90;;;;;;4974243;28;20477;-92
2023/04/20 05:56:02;;;;;;;37.25;17.17;;;5.00;99.90;;;;;;4975051;28;20023;-93
2023/04/20 05:58:28;;;;;;;37.63;14.85;;;5.00;99.90;;;;;;4974390;28;20063;-93
2023/04/20 06:00:54;;;;;;;37.20;15.63;;;5.00;99.90;;;;;;4975010;28;20031;-93
2023/04/20 06:03:20;;;;;;;39.80;16.00;;;5.00;99.90;;;;;;4976361;28;20404;-93
2023/04/20 06:05:46;;;;;;;36.75;16.70;;;5.00;99.90;;;;;;4975160;28;20038;-93
2023/04/20 06:08:13;;;;;;;43.80;16.98;;;5.00;99.90;;;;;;4978476;28;20027;-94
2023/04/20 06:10:39;;;;;;;32.85;15.82;;;5.00;99.90;;;;;;4990134;28;20443;-94
2023/04/20 06:13:05;;;;;;;34.47;16.85;;;5.00;99.90;;;;;;4989076;28;20066;-94
2023/04/20 06:15:31;;;;;;;35.50;15.05;;;5.10;99.90;;;;;;5005906;28;20041;-93
2023/04/20 06:17:57;;;;;;;35.03;15.68;;;5.10;99.90;;;;;;4991151;28;20034;-94
2023/04/20 06:20:23;;;;;;;34.58;15.55;;;5.10;99.90;;;;;;5007938;28;20018;-93
2023/04/20 06:22:48;;;;;;;34.40;15.45;;;5.10;99.90;;;;;;4988459;28;20115;-92
2023/04/20 06:25:14;;;;;;;36.40;16.33;;;5.10;99.90;;;;;;4990118;28;20030;-93
2023/04/20 06:27:40;;;;;;;42.92;17.15;;;5.20;99.90;;;;;;4989881;28;20029;-94
2023/04/20 06:30:08;;;;;;;44.13;16.85;;;5.20;99.90;;;;;;5020326;28;20022;-94
2023/04/20 06:32:34;;;;;;;33.03;15.90;;;5.20;99.90;;;;;;4989580;28;20022;-95
2023/04/20 06:35:00;;;;;;;45.78;18.27;;;5.20;99.90;;;;;;5008276;28;20064;-94
2023/04/20 06:37:26;;;;;;;39.67;17.15;;;5.20;99.90;;;;;;4996449;28;20019;-93
2023/04/20 06:39:55;;;;;;;41.90;17.40;;;5.20;99.90;;;;;;4980295;28;20022;-93
2023/04/20 12:18:20;;;;;;;1.58;1.00;;;18.40;53.40;;;;;;5706254;23;20096;-94
2023/04/20 14:07:34;;;;;;;3.35;0.90;;;20.70;46.10;;;;;;5289611;23;20150;-89
2023/04/20 14:10:00;;;;;;;4.47;1.30;;;20.60;46.40;;;;;;4885637;29;20482;-89
2023/04/20 14:12:26;;;;;;;2.85;1.90;;;20.50;46.40;;;;;;4900244;29;20410;-90
2023/04/20 14:14:55;;;;;;;3.83;1.50;;;20.50;46.60;;;;;;4884575;29;20088;-89
2023/04/20 14:17:21;;;;;;;32.47;20.42;;;20.40;46.50;;;;;;4897681;29;20072;-89
2023/04/20 14:19:48;;;;;;;6.75;4.30;;;20.20;46.50;;;;;;4899090;29;20036;-87
2023/04/20 17:03:13;;;;;;;14.52;5.97;;;17.90;47.80;;;;;;5509715;23;20052;-88
2023/04/20 17:05:39;;;;;;;4.47;2.85;;;17.80;47.90;;;;;;4918225;29;20435;-87
2023/04/20 17:08:05;;;;;;;6.32;2.25;;;17.80;48.00;;;;;;4918723;29;20029;-86
2023/04/20 17:10:32;;;;;;;4.55;1.98;;;17.70;47.60;;;;;;4900088;29;20028;-86
2023/04/20 17:12:57;;;;;;;2.78;1.67;;;17.50;47.70;;;;;;4882734;29;20041;-86
2023/04/20 17:15:23;;;;;;;3.47;2.08;;;17.40;47.90;;;;;;4883093;29;20431;-86
2023/04/20 17:17:49;;;;;;;6.28;2.08;;;17.20;47.90;;;;;;4882900;29;20460;-88
2023/04/20 17:20:14;;;;;;;2.90;1.90;;;17.10;48.20;;;;;;4899586;29;20032;-87
2023/04/20 17:22:40;;;;;;;4.88;2.25;;;17.10;48.10;;;;;;4899758;29;20606;-86
2023/04/20 17:25:06;;;;;;;6.65;2.50;;;17.10;47.80;;;;;;4882503;29;20036;-86
2023/04/20 17:27:32;;;;;;;4.75;2.10;;;16.80;47.00;;;;;;4882509;29;20036;-88
2023/04/20 17:29:58;;;;;;;4.90;2.08;;;16.70;47.10;;;;;;4882036;29;20028;-86
2023/04/20 17:32:24;;;;;;;7.72;2.40;;;16.60;47.30;;;;;;4881904;29;20028;-85
2023/04/20 17:34:52;;;;;;;5.20;2.00;;;16.40;47.50;;;;;;4898316;29;20028;-86
2023/04/20 17:37:18;;;;;;;4.38;2.08;;;16.30;48.10;;;;;;4898394;29;20122;-87
2023/04/20 17:39:44;;;;;;;5.68;2.17;;;16.10;48.60;;;;;;4898959;29;20476;-86
2023/04/20 17:42:10;;;;;;;6.88;2.55;;;15.90;49.00;;;;;;4882804;29;20052;-87
2023/04/20 17:44:37;;;;;;;4.65;1.95;;;15.80;49.30;;;;;;4898857;29;20483;-86
2023/04/20 17:47:03;;;;;;;7.45;2.13;;;15.70;49.70;;;;;;4882230;29;20034;-86
2023/04/20 17:49:31;;;;;;;5.32;2.20;;;15.50;50.10;;;;;;4881539;29;20088;-88
2023/04/20 17:51:57;;;;;;;8.98;3.00;;;15.30;50.60;;;;;;4898625;29;20493;-88
2023/04/20 17:54:26;;;;;;;7.70;2.38;;;15.10;51.00;;;;;;4897944;29;20043;-87
2023/04/20 17:56:52;;;;;;;4.07;1.77;;;15.00;51.60;;;;;;4881532;29;20043;-87
2023/04/20 17:59:17;;;;;;;4.93;1.80;;;14.80;52.00;;;;;;4898550;29;20033;-88
2023/04/20 18:01:43;;;;;;;10.63;2.83;;;14.70;52.50;;;;;;4882284;29;20036;-88
2023/04/20 18:04:09;;;;;;;7.45;2.10;;;14.50;53.10;;;;;;4883509;29;20044;-88
2023/04/20 18:06:35;;;;;;;9.82;2.85;;;14.40;53.70;;;;;;4881019;29;20067;-88
2023/04/20 18:09:00;;;;;;;6.72;2.88;;;14.20;54.70;;;;;;4896910;29;20475;-88
2023/04/20 18:11:26;;;;;;;5.38;2.28;;;14.10;54.60;;;;;;4878494;29;20511;-87
2023/04/20 18:13:52;;;;;;;8.68;2.15;;;14.10;55.00;;;;;;4881402;29;20047;-87
2023/04/20 18:16:17;;;;;;;3.28;1.85;;;14.00;55.70;;;;;;4898933;29;20035;-88
2023/04/20 18:18:43;;;;;;;6.78;2.38;;;13.90;56.10;;;;;;4881578;29;20037;-87
2023/04/20 18:21:10;;;;;;;7.70;2.50;;;13.80;56.60;;;;;;4880749;29;20475;-88
2023/04/20 18:23:36;;;;;;;9.30;2.88;;;13.70;56.80;;;;;;4879495;29;20036;-87
2023/04/20 18:26:02;;;;;;;6.40;2.22;;;13.60;57.10;;;;;;4896855;29;20028;-88
2023/04/20 18:28:28;;;;;;;8.32;2.35;;;13.60;57.60;;;;;;4897477;29;20494;-89
2023/04/20 18:30:54;;;;;;;4.50;1.98;;;13.40;57.70;;;;;;4880290;29;20111;-87
2023/04/20 18:33:20;;;;;;;6.35;2.58;;;13.20;58.00;;;;;;4871440;29;20188;-87
2023/04/20 18:35:46;;;;;;;4.50;2.10;;;13.10;58.40;;;;;;4887393;29;20100;-89
2023/04/20 18:38:11;;;;;;;5.35;1.95;;;13.00;58.80;;;;;;4871279;29;20028;-88
2023/04/20 18:40:37;;;;;;;7.05;2.53;;;12.90;59.10;;;;;;4871036;29;20013;-87
2023/04/20 18:43:03;;;;;;;6.15;1.90;;;12.80;59.30;;;;;;4869292;29;20052;-87
2023/04/20 18:45:29;;;;;;;5.75;2.28;;;12.70;59.60;;;;;;4887180;29;20489;-90
2023/04/20 18:47:56;;;;;;;6.65;1.92;;;12.70;60.20;;;;;;4870717;29;20029;-87
2023/04/20 18:50:22;;;;;;;4.80;1.90;;;12.70;60.60;;;;;;4871273;29;20140;-87
2023/04/20 18:52:48;;;;;;;6.47;2.42;;;12.60;61.00;;;;;;4887145;29;20529;-87
2023/04/20 18:55:14;;;;;;;7.15;2.30;;;12.50;61.40;;;;;;4870363;29;20038;-87
2023/04/20 18:57:39;;;;;;;5.25;2.00;;;12.30;61.70;;;;;;4886303;29;20055;-88
2023/04/20 19:00:07;;;;;;;9.50;1.92;;;12.20;62.10;;;;;;4870330;29;20025;-87
2023/04/20 19:02:33;;;;;;;11.05;2.28;;;12.10;62.70;;;;;;4871474;29;20064;-86
2023/04/20 19:04:59;;;;;;;8.43;2.22;;;12.00;63.30;;;;;;4869226;29;20036;-88
2023/04/20 19:07:25;;;;;;;8.30;2.17;;;11.90;63.80;;;;;;4871182;29;20032;-89
2023/04/20 19:09:50;;;;;;;8.23;2.20;;;11.80;64.10;;;;;;4886543;29;20024;-88
2023/04/20 19:12:16;;;;;;;8.13;2.25;;;11.80;64.80;;;;;;4887045;29;20488;-87
2023/04/20 19:14:42;;;;;;;12.20;2.20;;;11.70;65.30;;;;;;4878953;29;20025;-87
2023/04/20 19:17:08;;;;;;;10.20;2.85;;;11.50;66.00;;;;;;4881118;29;20028;-87
2023/04/20 19:19:33;;;;;;;9.15;2.30;;;11.50;66.80;;;;;;4878948;29;20029;-87
2023/04/20 19:21:59;;;;;;;9.63;2.70;;;11.30;67.40;;;;;;4873369;29;20124;-87
2023/04/20 19:24:29;;;;;;;10.50;2.58;;;11.20;68.30;;;;;;4879524;29;20099;-87
2023/04/20 19:26:57;;;;;;;12.73;2.63;;;11.00;68.90;;;;;;4877817;29;20035;-86
2023/04/20 19:29:23;;;;;;;6.70;2.00;;;10.90;69.80;;;;;;4881573;29;20398;-87
2023/04/20 19:31:49;;;;;;;10.52;2.47;;;10.80;70.50;;;;;;4880542;29;20028;-86
2023/04/20 19:34:18;;;;;;;8.63;2.28;;;10.80;71.50;;;;;;4880430;29;20037;-87
2023/04/20 19:36:44;;;;;;;10.77;2.45;;;10.70;72.30;;;;;;4897235;29;20615;-85
2023/04/20 19:39:13;;;;;;;13.32;3.13;;;10.60;73.10;;;;;;4892867;29;20033;-87
2023/04/20 19:41:38;;;;;;;14.43;2.55;;;10.60;73.60;;;;;;4882533;29;20414;-86
2023/04/20 19:44:05;;;;;;;13.52;2.92;;;10.50;73.80;;;;;;4893092;29;20028;-88
2023/04/20 19:46:32;;;;;;;9.80;2.58;;;10.50;74.80;;;;;;4880255;29;20127;-88
2023/04/20 19:48:59;;;;;;;14.20;2.90;;;10.40;75.60;;;;;;4879240;29;20035;-86
2023/04/20 19:51:26;;;;;;;18.48;3.22;;;10.40;76.30;;;;;;4896195;29;20024;-85
2023/04/20 19:53:51;;;;;;;11.25;2.33;;;10.30;77.00;;;;;;4880516;29;20086;-87
2023/04/20 19:56:17;;;;;;;9.88;2.60;;;10.30;77.60;;;;;;4880657;29;20064;-87
2023/04/20 19:58:43;;;;;;;22.02;3.38;;;10.20;78.10;;;;;;4897892;29;20047;-87
2023/04/20 20:01:09;;;;;;;16.15;2.95;;;10.10;78.30;;;;;;4880884;29;20534;-87
2023/04/20 20:03:34;;;;;;;18.25;3.40;;;10.10;78.70;;;;;;4880856;29;20324;-87
2023/04/20 20:06:00;;;;;;;14.32;3.00;;;10.10;79.20;;;;;;4893931;29;20024;-87
2023/04/20 20:08:26;;;;;;;15.75;4.53;;;10.00;79.50;;;;;;4906294;29;20076;-86
2023/04/20 20:10:52;;;;;;;14.07;4.00;;;10.00;80.20;;;;;;4907139;29;20033;-86
2023/04/20 20:13:18;;;;;;;11.98;3.67;;;9.90;80.20;;;;;;4907361;29;20068;-87
2023/04/20 20:15:43;;;;;;;19.45;3.88;;;9.90;80.20;;;;;;4886945;29;20024;-87
2023/04/20 20:18:11;;;;;;;11.88;3.33;;;9.90;80.60;;;;;;4884678;29;20040;-86
2023/04/20 20:20:37;;;;;;;16.95;3.70;;;9.80;80.90;;;;;;4901342;29;20025;-85
2023/04/20 20:23:03;;;;;;;20.63;4.20;;;9.80;81.20;;;;;;4881115;29;20115;-87
2023/04/20 20:25:29;;;;;;;17.75;4.57;;;9.80;81.60;;;;;;4879824;29;20131;-86
2023/04/20 20:27:54;;;;;;;19.33;4.00;;;9.80;81.80;;;;;;4896934;29;20047;-87
2023/04/20 20:30:20;;;;;;;12.70;3.60;;;9.70;82.00;;;;;;4880247;29;20063;-86
2023/04/20 20:32:46;;;;;;;20.02;4.43;;;9.70;82.00;;;;;;4896509;29;20056;-86
2023/04/20 20:35:12;;;;;;;19.80;4.82;;;9.70;82.20;;;;;;4896377;29;20029;-85
2023/04/20 20:37:39;;;;;;;20.75;5.38;;;9.70;82.40;;;;;;4881944;29;20053;-87
2023/04/20 20:40:09;;;;;;;20.98;4.90;;;9.70;82.80;;;;;;4880582;29;20032;-86
2023/04/20 20:42:37;;;;;;;17.75;4.55;;;9.70;83.10;;;;;;4895143;29;20104;-86
2023/04/20 20:45:05;;;;;;;34.70;5.53;;;9.70;83.30;;;;;;4881979;29;20376;-87
2023/04/20 20:47:32;;;;;;;23.95;4.57;;;9.60;83.50;;;;;;4898468;29;20120;-86
2023/04/20 20:49:57;;;;;;;11.40;4.28;;;9.60;83.70;;;;;;4881924;29;20032;-86
2023/04/20 20:52:23;;;;;;;15.80;4.95;;;9.60;84.20;;;;;;4882270;29;20032;-84
2023/04/20 20:54:49;;;;;;;19.05;4.63;;;9.50;84.70;;;;;;4883743;29;20037;-86
2023/04/20 20:57:15;;;;;;;21.95;4.75;;;9.40;85.10;;;;;;4899765;29;20020;-87
2023/04/20 20:59:41;;;;;;;15.18;4.00;;;9.40;85.50;;;;;;4883156;29;20041;-86
2023/04/20 21:02:06;;;;;;;17.58;5.53;;;9.40;86.10;;;;;;4883020;29;20029;-86
2023/04/20 21:04:32;;;;;;;13.70;4.75;;;9.30;86.50;;;;;;4883233;29;20059;-86
2023/04/20 21:06:58;;;;;;;16.70;5.70;;;9.30;87.00;;;;;;4883515;29;20064;-87
2023/04/20 21:09:24;;;;;;;17.85;5.82;;;9.20;87.50;;;;;;4882913;29;20060;-86
2023/04/20 21:11:50;;;;;;;22.35;5.47;;;9.20;88.10;;;;;;4884303;29;20040;-87
2023/04/20 21:14:16;;;;;;;19.75;4.90;;;9.20;88.70;;;;;;4882623;29;20036;-86
2023/04/20 21:16:41;;;;;;;15.90;4.85;;;9.10;89.10;;;;;;4882200;29;20033;-86
2023/04/20 21:19:09;;;;;;;25.23;5.93;;;9.10;89.90;;;;;;4884308;29;20119;-87
2023/04/20 21:21:34;;;;;;;26.30;6.57;;;9.10;90.30;;;;;;4883829;29;20037;-87
2023/04/20 21:24:00;;;;;;;19.92;5.22;;;9.10;90.70;;;;;;4882449;29;20021;-86
2023/04/20 21:26:27;;;;;;;22.50;5.93;;;9.10;91.10;;;;;;4882882;29;20514;-86
2023/04/20 21:28:52;;;;;;;28.20;6.22;;;9.10;91.60;;;;;;4882626;29;20029;-87
2023/04/20 21:31:18;;;;;;;26.65;6.28;;;9.00;92.00;;;;;;4899097;29;20100;-86
2023/04/20 21:33:44;;;;;;;25.30;6.30;;;9.00;92.50;;;;;;4899139;29;20440;-85
2023/04/20 21:36:10;;;;;;;19.23;5.63;;;9.00;92.90;;;;;;4882719;29;20029;-86
2023/04/20 21:38:35;;;;;;;24.70;5.25;;;9.00;93.30;;;;;;4899397;29;20036;-88
2023/04/20 21:41:01;;;;;;;20.77;5.40;;;9.00;93.90;;;;;;4882749;29;20164;-86
2023/04/20 21:43:27;;;;;;;23.08;7.30;;;8.90;94.50;;;;;;4881378;29;20123;-86
2023/04/20 21:45:52;;;;;;;26.38;5.70;;;8.90;95.00;;;;;;4899041;29;20491;-86
2023/04/20 21:48:18;;;;;;;18.52;5.65;;;9.00;95.60;;;;;;4873966;29;20035;-86
2023/04/20 21:50:44;;;;;;;21.35;5.53;;;9.00;96.10;;;;;;4879298;29;20027;-87
2023/04/20 21:53:12;;;;;;;27.10;5.80;;;9.00;96.70;;;;;;4882252;29;20418;-85
2023/04/20 21:55:38;;;;;;;24.17;8.02;;;9.00;97.30;;;;;;4898858;29;20032;-86
2023/04/20 21:58:04;;;;;;;20.83;5.35;;;9.00;97.90;;;;;;4883115;29;20510;-86
2023/04/20 22:00:30;;;;;;;22.38;6.13;;;8.90;98.50;;;;;;4882562;29;20028;-87
2023/04/20 22:02:55;;;;;;;20.77;6.05;;;8.90;99.10;;;;;;4882585;29;20052;-87
2023/04/20 22:05:21;;;;;;;20.58;6.05;;;8.80;99.90;;;;;;4883409;29;20043;-87
2023/04/20 22:07:49;;;;;;;20.70;6.10;;;8.90;99.90;;;;;;4901436;29;20025;-86
2023/04/20 22:10:15;;;;;;;19.50;5.47;;;8.80;99.90;;;;;;4904482;29;20025;-85
2023/04/20 22:12:41;;;;;;;19.67;5.72;;;8.80;99.90;;;;;;4890418;29;20076;-86
2023/04/20 22:15:12;;;;;;;20.48;7.10;;;8.90;99.90;;;;;;4889952;29;20029;-86
2023/04/20 22:17:39;;;;;;;23.42;7.03;;;8.90;99.90;;;;;;4903868;29;20509;-87
2023/04/20 22:20:07;;;;;;;23.27;6.35;;;8.80;99.90;;;;;;4891759;29;20025;-86
2023/04/20 22:22:36;;;;;;;24.25;6.90;;;8.80;99.90;;;;;;4879976;29;20043;-85
2023/04/20 22:25:03;;;;;;;27.05;6.63;;;8.80;99.90;;;;;;4892866;29;20372;-86
2023/04/20 22:27:30;;;;;;;26.08;6.80;;;8.70;99.90;;;;;;4880054;29;20040;-88
2023/04/20 22:29:56;;;;;;;18.13;6.35;;;8.70;99.90;;;;;;4868798;29;20031;-88
2023/04/20 22:32:21;;;;;;;26.77;7.28;;;8.70;99.90;;;;;;4883116;29;20448;-87
2023/04/20 22:34:47;;;;;;;16.35;6.43;;;8.70;99.90;;;;;;4882504;29;20041;-86
2023/04/20 22:37:15;;;;;;;22.38;6.80;;;8.70;99.90;;;;;;4897079;29;20025;-86
2023/04/20 22:39:40;;;;;;;24.70;6.88;;;8.60;99.90;;;;;;4896933;29;20032;-88